createdAt,value
2023-04-08T00:01:33.657Z,16.38
2023-04-08T00:04:06.032Z,15.40
2023-04-08T00:06:39.206Z,15.18
2023-04-08T00:09:11.485Z,14.73
2023-04-08T00:11:43.707Z,16.13
2023-04-08T00:14:15.977Z,14.52
2023-04-08T00:16:48.134Z,15.68
2023-04-08T00:19:20.597Z,15.13
2023-04-08T00:21:53.945Z,14.75
2023-04-08T00:24:26.313Z,14.55
2023-04-08T00:26:58.438Z,14.68
2023-04-08T00:29:30.982Z,14.30
2023-04-08T00:32:03.873Z,14.55
2023-04-08T00:34:37.391Z,14.97
2023-04-08T00:37:10.159Z,14.77
2023-04-08T00:39:42.270Z,14.37
2023-04-08T00:42:14.663Z,15.20
2023-04-08T00:44:46.998Z,16.40
2023-04-08T00:47:19.190Z,15.93
2023-04-08T00:49:52.041Z,14.55
2023-04-08T00:52:24.337Z,14.80
2023-04-08T00:54:56.697Z,15.43
2023-04-08T00:57:29.566Z,14.35
2023-04-08T01:00:02.372Z,14.73
2023-04-08T01:02:46.538Z,15.05
2023-04-08T01:05:54.026Z,15.40
2023-04-08T01:08:30.140Z,14.70
2023-04-08T01:11:08.866Z,13.63
2023-04-08T01:13:42.786Z,13.23
2023-04-08T01:16:18.279Z,13.32
2023-04-08T01:18:52.599Z,13.32
2023-04-08T01:21:26.056Z,12.80
2023-04-08T01:24:11.863Z,14.25
2023-04-08T01:26:44.836Z,13.18
2023-04-08T01:29:17.364Z,13.60
2023-04-08T01:31:50.418Z,13.45
2023-04-08T01:34:24.630Z,13.35
2023-04-08T01:37:01.376Z,13.02
2023-04-08T01:39:35.411Z,13.45
2023-04-08T01:42:09.829Z,14.05
2023-04-08T01:44:42.934Z,13.23
2023-04-08T01:47:17.366Z,14.57
2023-04-08T01:49:52.020Z,14.07
2023-04-08T01:52:26.934Z,14.32
2023-04-08T01:55:00.003Z,15.05
2023-04-08T01:57:35.377Z,16.17
2023-04-08T02:00:12.766Z,14.77
2023-04-08T02:02:58.819Z,13.38
2023-04-08T02:05:31.233Z,14.40
2023-04-08T02:08:03.595Z,12.25
2023-04-08T02:10:35.946Z,13.95
2023-04-08T02:13:10.473Z,12.88
2023-04-08T02:15:47.036Z,13.83
2023-04-08T02:18:28.393Z,13.60
2023-04-08T02:21:11.580Z,13.32
2023-04-08T02:23:50.452Z,13.32
2023-04-08T02:26:24.647Z,12.43
2023-04-08T02:28:57.956Z,14.25
2023-04-08T02:31:33.662Z,13.25
2023-04-08T02:34:08.615Z,14.27
2023-04-08T02:36:42.762Z,13.63
2023-04-08T02:39:15.022Z,13.52
2023-04-08T02:41:47.575Z,15.23
2023-04-08T02:44:19.690Z,13.88
2023-04-08T02:46:52.233Z,14.63
2023-04-08T02:49:24.719Z,14.02
2023-04-08T02:51:56.988Z,13.80
2023-04-08T02:54:29.240Z,14.48
2023-04-08T02:57:01.614Z,15.82
2023-04-08T02:59:34.349Z,15.85
2023-04-08T03:02:06.704Z,15.60
2023-04-08T03:04:39.393Z,15.05
2023-04-08T03:07:11.598Z,15.48
2023-04-08T03:09:43.670Z,14.73
2023-04-08T03:12:16.158Z,15.27
2023-04-08T03:14:48.761Z,15.55
2023-04-08T03:17:26.845Z,15.63
2023-04-08T03:19:59.068Z,16.23
2023-04-08T03:22:32.133Z,16.35
2023-04-08T03:25:04.625Z,15.77
2023-04-08T03:27:36.724Z,17.25
2023-04-08T03:30:09.468Z,14.70
2023-04-08T03:32:42.022Z,15.00
2023-04-08T03:35:15.961Z,15.73
2023-04-08T03:37:48.744Z,15.70
2023-04-08T03:40:20.831Z,16.00
2023-04-08T03:42:53.931Z,16.50
2023-04-08T03:45:26.742Z,13.80
2023-04-08T03:47:59.159Z,14.32
2023-04-08T03:50:31.412Z,15.10
2023-04-08T03:53:12.225Z,16.33
2023-04-08T03:55:44.332Z,14.32
2023-04-08T03:58:16.752Z,16.88
2023-04-08T04:00:48.970Z,16.80
2023-04-08T04:03:21.743Z,15.50
2023-04-08T04:05:54.119Z,15.80
2023-04-08T04:08:29.460Z,15.45
2023-04-08T04:11:02.117Z,14.30
2023-04-08T04:13:34.406Z,16.08
2023-04-08T04:16:06.826Z,15.95
2023-04-08T04:18:39.145Z,15.90
2023-04-08T04:21:11.655Z,15.90
2023-04-08T04:23:44.023Z,15.68
2023-04-08T04:26:16.214Z,16.58
2023-04-08T04:28:48.986Z,15.45
2023-04-08T04:31:23.602Z,15.65
2023-04-08T04:33:56.138Z,16.05
2023-04-08T04:36:32.330Z,16.77
2023-04-08T04:39:04.642Z,17.58
2023-04-08T04:41:40.720Z,16.77
2023-04-08T04:44:13.417Z,15.10
2023-04-08T04:46:49.154Z,16.98
2023-04-08T04:49:21.367Z,16.52
2023-04-08T04:51:53.573Z,16.45
2023-04-08T04:54:29.620Z,15.15
2023-04-08T04:57:01.881Z,17.25
2023-04-08T04:59:34.105Z,16.02
2023-04-08T05:02:06.644Z,17.17
2023-04-08T05:04:39.260Z,16.58
2023-04-08T05:07:11.569Z,18.17
2023-04-08T05:09:44.069Z,17.33
2023-04-08T05:12:16.530Z,17.38
2023-04-08T05:14:49.607Z,16.98
2023-04-08T05:17:21.693Z,16.35
2023-04-08T05:19:53.871Z,19.75
2023-04-08T05:22:26.106Z,17.52
2023-04-08T05:24:58.659Z,18.48
2023-04-08T05:27:30.827Z,17.85
2023-04-08T05:30:03.218Z,16.92
2023-04-08T05:32:35.863Z,17.90
2023-04-08T05:35:09.758Z,18.52
2023-04-08T05:37:42.190Z,18.58
2023-04-08T05:40:14.503Z,18.23
2023-04-08T05:42:47.266Z,18.98
2023-04-08T05:45:19.576Z,18.33
2023-04-08T05:47:51.764Z,18.08
2023-04-08T05:50:23.922Z,20.20
2023-04-08T05:52:56.245Z,20.17
2023-04-08T05:55:28.402Z,17.73
2023-04-08T05:58:01.113Z,19.52
2023-04-08T06:00:33.663Z,18.50
2023-04-08T06:03:05.959Z,18.33
2023-04-08T06:05:38.107Z,19.98
2023-04-08T06:08:10.289Z,18.20
2023-04-08T06:10:50.761Z,18.15
2023-04-08T06:13:25.712Z,18.55
2023-04-08T06:15:58.490Z,18.63
2023-04-08T06:18:30.897Z,15.10
2023-04-08T06:21:03.287Z,19.10
2023-04-08T06:23:35.622Z,18.02
2023-04-08T06:26:07.787Z,17.55
2023-04-08T06:28:40.700Z,18.25
2023-04-08T06:31:12.816Z,17.98
2023-04-08T06:33:44.964Z,17.98
2023-04-08T06:36:17.217Z,17.83
2023-04-08T06:38:49.626Z,18.02
2023-04-08T06:41:22.035Z,18.70
2023-04-08T06:43:54.978Z,17.40
2023-04-08T06:46:28.165Z,17.40
2023-04-08T06:49:00.528Z,16.92
2023-04-08T06:51:33.026Z,17.67
2023-04-08T06:54:05.533Z,17.25
2023-04-08T06:56:38.032Z,16.60
2023-04-08T06:59:10.099Z,18.42
2023-04-08T07:01:42.572Z,18.13
2023-04-08T07:04:17.802Z,18.70
2023-04-08T07:06:50.468Z,20.58
2023-04-08T07:09:22.692Z,21.00
2023-04-08T07:11:54.864Z,22.05
2023-04-08T07:14:27.125Z,23.58
2023-04-08T07:16:59.316Z,24.02
2023-04-08T07:19:31.811Z,23.45
2023-04-08T07:22:04.147Z,23.80
2023-04-08T07:24:36.539Z,23.02
2023-04-08T07:27:09.533Z,23.60
2023-04-08T07:29:41.619Z,24.77
2023-04-08T07:32:16.456Z,21.10
2023-04-08T07:34:49.167Z,20.00
2023-04-08T07:37:21.425Z,20.93
2023-04-08T07:39:54.255Z,19.38
2023-04-08T07:42:26.438Z,18.37
2023-04-08T07:44:58.664Z,20.55
2023-04-08T07:47:31.297Z,19.55
2023-04-08T07:50:04.472Z,21.45
2023-04-08T07:52:36.579Z,21.35
2023-04-08T07:55:09.179Z,22.85
2023-04-08T07:57:41.257Z,20.77
2023-04-08T08:00:20.976Z,21.45
2023-04-08T08:02:53.384Z,21.83
2023-04-08T08:05:26.160Z,23.20
2023-04-08T08:07:58.428Z,22.90
2023-04-08T08:10:30.995Z,25.73
2023-04-08T08:13:06.565Z,22.23
2023-04-08T08:15:39.285Z,21.85
2023-04-08T08:18:11.692Z,21.88
2023-04-08T08:20:43.846Z,23.20
2023-04-08T08:23:16.652Z,21.40
2023-04-08T08:25:48.772Z,20.67
2023-04-08T08:28:20.923Z,19.75
2023-04-08T08:30:53.001Z,18.80
2023-04-08T08:33:26.543Z,19.67
2023-04-08T08:35:59.023Z,19.13
2023-04-08T08:38:31.422Z,20.92
2023-04-08T08:41:04.932Z,20.55
2023-04-08T08:46:12.344Z,19.75
2023-04-08T08:48:45.194Z,21.60
2023-04-08T08:51:17.575Z,22.03
2023-04-08T08:53:49.833Z,21.23
2023-04-08T08:56:22.247Z,22.65
2023-04-08T08:58:54.954Z,21.73
2023-04-08T09:01:35.982Z,21.20
2023-04-08T09:04:13.149Z,22.98
2023-04-08T09:06:47.423Z,25.77
2023-04-08T09:09:19.611Z,22.40
2023-04-08T09:12:04.810Z,22.80
2023-04-08T09:14:37.462Z,21.95
2023-04-08T09:17:10.669Z,22.27
2023-04-08T09:20:09.788Z,23.93
2023-04-08T09:22:58.440Z,24.80
2023-04-08T09:25:34.583Z,24.02
2023-04-08T09:28:20.717Z,23.10
2023-04-08T09:30:53.150Z,23.60
2023-04-08T09:33:32.099Z,23.30
2023-04-08T09:36:04.314Z,22.83
2023-04-08T09:38:36.489Z,25.23
2023-04-08T09:41:09.879Z,23.73
2023-04-08T09:43:50.425Z,24.60
2023-04-08T09:47:01.173Z,23.27
2023-04-08T09:49:43.612Z,22.83
2023-04-08T09:52:23.730Z,20.70
2023-04-08T09:55:05.923Z,20.70
2023-04-08T09:57:53.504Z,20.27
2023-04-08T10:00:39.124Z,19.05
2023-04-08T10:03:21.645Z,20.20
2023-04-08T10:05:56.393Z,19.17
2023-04-08T10:08:29.038Z,20.38
2023-04-08T10:11:01.291Z,22.55
2023-04-08T10:13:34.361Z,19.98
2023-04-08T10:16:23.026Z,21.83
2023-04-08T10:18:58.689Z,19.70
2023-04-08T10:21:37.779Z,21.55
2023-04-08T10:24:11.162Z,19.92
2023-04-08T10:26:45.302Z,19.90
2023-04-08T10:29:29.900Z,20.65
2023-04-08T10:32:03.031Z,21.55
2023-04-08T10:34:35.661Z,22.60
2023-04-08T10:37:09.377Z,21.80
2023-04-08T10:39:49.680Z,22.15
2023-04-08T10:42:27.778Z,22.40
2023-04-08T10:45:00.995Z,22.27
2023-04-08T10:47:33.687Z,22.25
2023-04-08T10:50:17.427Z,21.20
2023-04-08T10:52:55.913Z,22.67
2023-04-08T10:55:28.897Z,22.55
2023-04-08T10:58:08.674Z,22.88
2023-04-08T11:00:41.199Z,22.52
2023-04-08T11:03:15.534Z,22.98
2023-04-08T11:05:50.189Z,22.88
2023-04-08T11:08:29.609Z,23.05
2023-04-08T11:11:02.303Z,24.38
2023-04-08T11:13:36.546Z,22.97
2023-04-08T11:16:17.717Z,23.92
2023-04-08T11:18:52.034Z,23.58
2023-04-08T11:21:25.954Z,22.75
2023-04-08T11:23:59.035Z,22.77
2023-04-08T11:26:31.655Z,23.40
2023-04-08T11:29:04.381Z,24.88
2023-04-08T11:31:37.124Z,23.90
2023-04-08T11:34:09.643Z,24.13
2023-04-08T11:36:42.016Z,24.67
2023-04-08T11:39:14.377Z,25.67
2023-04-08T11:41:46.844Z,26.20
2023-04-08T11:44:19.681Z,25.60
2023-04-08T11:46:57.422Z,26.45
2023-04-08T11:49:44.841Z,27.48
2023-04-08T11:52:17.218Z,24.67
2023-04-08T11:54:49.443Z,25.88
2023-04-08T11:57:30.176Z,26.80
2023-04-08T12:00:02.309Z,27.17
2023-04-08T12:02:43.269Z,27.63
2023-04-08T12:05:16.356Z,28.85
2023-04-08T12:07:48.613Z,27.13
2023-04-08T12:10:21.333Z,26.70
2023-04-08T12:12:53.689Z,26.03
2023-04-08T12:15:26.305Z,25.73
2023-04-08T12:17:58.420Z,25.02
2023-04-08T12:20:30.886Z,26.13
2023-04-08T12:23:03.322Z,23.83
2023-04-08T12:25:35.715Z,23.50
2023-04-08T12:28:10.169Z,24.73
2023-04-08T12:30:42.453Z,23.05
2023-04-08T12:33:14.715Z,21.58
2023-04-08T12:35:47.017Z,21.88
2023-04-08T12:38:19.772Z,20.98
2023-04-08T12:40:52.215Z,20.75
2023-04-08T12:43:24.723Z,22.50
2023-04-08T12:45:57.320Z,21.77
2023-04-08T12:48:29.896Z,20.77
2023-04-08T12:51:02.093Z,19.00
2023-04-08T12:53:34.484Z,20.08
2023-04-08T12:56:07.241Z,21.13
2023-04-08T12:58:39.765Z,21.50
2023-04-08T13:01:12.726Z,21.45
2023-04-08T13:03:46.981Z,21.55
2023-04-08T13:06:19.371Z,22.83
2023-04-08T13:08:51.809Z,21.35
2023-04-08T13:11:24.177Z,23.80
2023-04-08T13:13:56.298Z,25.27
2023-04-08T13:16:28.774Z,24.52
2023-04-08T13:19:01.392Z,24.52
2023-04-08T13:21:33.556Z,24.85
2023-04-08T13:24:06.922Z,23.92
2023-04-08T13:26:39.065Z,24.75
2023-04-08T13:29:11.828Z,25.40
2023-04-08T13:31:44.013Z,24.48
2023-04-08T13:34:16.419Z,25.00
2023-04-08T13:36:48.464Z,26.50
2023-04-08T13:39:20.711Z,22.95
2023-04-08T13:41:52.902Z,23.77
2023-04-08T13:44:25.086Z,22.92
2023-04-08T13:46:57.198Z,23.38
2023-04-08T13:49:29.379Z,23.17
2023-04-08T13:52:01.676Z,23.27
2023-04-08T13:54:34.063Z,22.40
2023-04-08T13:57:06.460Z,20.88
2023-04-08T13:59:38.620Z,20.70
2023-04-08T14:02:10.732Z,21.40
2023-04-08T14:04:45.030Z,20.92
2023-04-08T14:07:17.532Z,21.42
2023-04-08T14:09:49.625Z,20.52
2023-04-08T14:12:21.777Z,21.45
2023-04-08T14:14:54.049Z,21.92
2023-04-08T14:17:26.259Z,21.63
2023-04-08T14:19:59.714Z,21.42
2023-04-08T14:22:31.825Z,21.42
2023-04-08T14:25:04.404Z,24.13
2023-04-08T14:27:42.081Z,22.97
2023-04-08T14:30:23.262Z,20.83
2023-04-08T14:32:55.475Z,22.48
2023-04-08T14:35:27.673Z,22.67
2023-04-08T14:37:59.765Z,22.60
2023-04-08T14:40:31.847Z,20.67
2023-04-08T14:43:04.622Z,21.33
2023-04-08T14:45:36.813Z,21.17
2023-04-08T14:48:09.340Z,21.50
2023-04-08T14:50:41.627Z,20.05
2023-04-08T14:53:13.723Z,20.92
2023-04-08T14:55:46.125Z,22.95
2023-04-08T14:58:20.577Z,22.10
2023-04-08T15:00:53.372Z,21.05
2023-04-08T15:03:26.268Z,22.75
2023-04-08T15:06:02.038Z,22.60
2023-04-08T15:08:35.355Z,22.92
2023-04-08T15:11:07.574Z,21.40
2023-04-08T15:13:39.772Z,21.77
2023-04-08T15:16:12.368Z,21.73
2023-04-08T15:18:44.824Z,21.20
2023-04-08T15:21:17.014Z,20.85
2023-04-08T15:23:49.109Z,20.38
2023-04-08T15:26:22.030Z,20.42
2023-04-08T15:28:59.202Z,22.40
2023-04-08T15:31:32.790Z,20.35
2023-04-08T15:34:05.146Z,20.52
2023-04-08T15:36:38.072Z,20.17
2023-04-08T15:39:10.195Z,22.90
2023-04-08T15:41:42.440Z,22.00
2023-04-08T15:44:14.839Z,21.45
2023-04-08T15:46:47.421Z,20.77
2023-04-08T15:49:20.049Z,20.35
2023-04-08T15:51:53.764Z,20.30
2023-04-08T15:54:27.963Z,120.80
2023-04-08T15:57:02.784Z,181.23
2023-04-08T15:59:34.860Z,207.57
2023-04-08T16:02:07.459Z,410.60
2023-04-08T16:04:39.702Z,154.85
2023-04-08T16:07:11.949Z,36.28
2023-04-08T16:09:44.195Z,170.32
2023-04-08T16:12:16.817Z,30.33
2023-04-08T16:14:49.008Z,33.87
2023-04-08T16:17:22.139Z,27.35
2023-04-08T16:19:54.388Z,27.13
2023-04-08T16:22:27.971Z,28.65
2023-04-08T16:25:00.368Z,25.33
2023-04-08T16:27:32.848Z,27.88
2023-04-08T16:30:06.520Z,25.88
2023-04-08T16:32:38.814Z,24.80
2023-04-08T16:35:14.425Z,24.65
2023-04-08T16:37:47.105Z,32.73
2023-04-08T16:40:19.308Z,31.17
2023-04-08T16:42:51.463Z,30.02
2023-04-08T16:45:23.718Z,30.30
2023-04-08T16:47:56.539Z,29.08
2023-04-08T16:50:28.803Z,30.95
2023-04-08T16:53:01.607Z,35.45
2023-04-08T16:55:34.156Z,51.43
2023-04-08T16:58:06.567Z,31.05
2023-04-08T17:00:39.712Z,26.42
2023-04-08T17:03:12.423Z,26.75
2023-04-08T17:05:45.262Z,26.45
2023-04-08T17:08:18.883Z,27.73
2023-04-08T17:10:51.040Z,30.85
2023-04-08T17:13:23.179Z,30.63
2023-04-08T17:15:55.490Z,32.72
2023-04-08T17:18:27.749Z,29.80
2023-04-08T17:20:59.760Z,35.13
2023-04-08T17:23:32.466Z,28.00
2023-04-08T17:26:09.446Z,29.50
2023-04-08T17:28:41.927Z,26.33
2023-04-08T17:31:14.110Z,27.00
2023-04-08T17:33:46.420Z,28.45
2023-04-08T17:36:19.403Z,28.75
2023-04-08T17:38:51.614Z,28.75
2023-04-08T17:41:37.902Z,30.85
2023-04-08T17:44:11.881Z,31.20
2023-04-08T17:46:44.335Z,27.23
2023-04-08T17:49:17.156Z,29.02
2023-04-08T17:51:49.851Z,28.52
2023-04-08T17:54:22.812Z,29.03
2023-04-08T17:56:54.947Z,27.40
2023-04-08T17:59:27.826Z,32.28
2023-04-08T18:02:00.159Z,32.80
2023-04-08T18:04:33.076Z,28.90
2023-04-08T18:07:05.483Z,33.35
2023-04-08T18:09:37.621Z,30.95
2023-04-08T18:12:09.743Z,31.88
2023-04-08T18:14:42.007Z,29.98
2023-04-08T18:17:14.664Z,31.90
2023-04-08T18:19:46.812Z,31.50
2023-04-08T18:22:20.966Z,31.25
2023-04-08T18:24:53.050Z,32.60
2023-04-08T18:27:25.173Z,30.48
2023-04-08T18:29:57.388Z,32.55
2023-04-08T18:32:29.688Z,32.65
2023-04-08T18:35:01.928Z,28.58
2023-04-08T18:37:35.123Z,29.33
2023-04-08T18:40:08.136Z,31.05
2023-04-08T18:42:41.364Z,30.20
2023-04-08T18:45:13.569Z,31.40
2023-04-08T18:47:46.094Z,33.88
2023-04-08T18:50:18.465Z,29.70
2023-04-08T18:52:50.581Z,28.23
2023-04-08T18:55:22.791Z,28.90
2023-04-08T18:57:55.231Z,28.42
2023-04-08T19:00:27.530Z,27.40
2023-04-08T19:02:59.892Z,28.23
2023-04-08T19:05:33.165Z,28.52
2023-04-08T19:08:06.237Z,35.15
2023-04-08T19:10:38.502Z,32.25
2023-04-08T19:13:10.632Z,30.25
2023-04-08T19:15:43.277Z,29.10
2023-04-08T19:18:16.112Z,32.92
2023-04-08T19:20:48.474Z,34.50
2023-04-08T19:23:20.748Z,35.58
2023-04-08T19:25:52.875Z,32.40
2023-04-08T19:28:25.485Z,35.85
2023-04-08T19:30:58.075Z,33.80
2023-04-08T19:33:30.796Z,36.72
2023-04-08T19:36:03.328Z,33.37
2023-04-08T19:38:35.503Z,32.03
2023-04-08T19:41:07.629Z,30.25
2023-04-08T19:43:39.908Z,31.05
2023-04-08T19:46:12.044Z,29.30
2023-04-08T19:48:45.520Z,29.08
2023-04-08T19:51:20.392Z,31.38
2023-04-08T19:53:52.811Z,28.77
2023-04-08T19:56:25.842Z,38.92
2023-04-08T19:58:58.016Z,52.40
2023-04-08T20:01:30.146Z,42.28
2023-04-08T20:04:03.133Z,35.53
2023-04-08T20:06:35.610Z,36.78
2023-04-08T20:09:07.965Z,56.50
2023-04-08T20:11:40.533Z,47.75
2023-04-08T20:14:12.711Z,37.25
2023-04-08T20:16:45.077Z,39.63
2023-04-08T20:19:17.366Z,30.92
2023-04-08T20:21:49.642Z,26.20
2023-04-08T20:24:21.981Z,24.35
2023-04-08T20:26:54.594Z,23.88
2023-04-08T20:29:26.890Z,25.73
2023-04-08T20:31:59.261Z,28.38
2023-04-08T20:34:31.515Z,24.75
2023-04-08T20:37:03.912Z,22.50
2023-04-08T20:39:36.323Z,21.20
2023-04-08T20:42:09.631Z,21.52
2023-04-08T20:44:41.730Z,21.13
2023-04-08T20:47:14.422Z,20.08
2023-04-08T20:49:46.677Z,18.87
2023-04-08T20:52:19.367Z,61.92
2023-04-08T20:54:51.612Z,23.60
2023-04-08T20:57:23.702Z,19.08
2023-04-08T20:59:56.236Z,19.33
2023-04-08T21:02:28.923Z,18.98
2023-04-08T21:05:01.127Z,18.30
2023-04-08T21:07:33.246Z,18.38
2023-04-08T21:10:08.815Z,20.02
2023-04-08T21:12:41.063Z,20.25
2023-04-08T21:15:13.487Z,20.08
2023-04-08T21:17:45.728Z,19.25
2023-04-08T21:20:17.960Z,18.73
2023-04-08T21:22:50.265Z,18.75
2023-04-08T21:25:22.406Z,17.47
2023-04-08T21:27:54.672Z,16.77
2023-04-08T21:30:26.781Z,16.75
2023-04-08T21:32:59.031Z,17.85
2023-04-08T21:35:31.246Z,18.58
2023-04-08T21:38:03.432Z,17.45
2023-04-08T21:40:35.647Z,17.48
2023-04-08T21:43:07.735Z,17.10
2023-04-08T21:45:40.049Z,17.15
2023-04-08T21:48:12.204Z,16.05
2023-04-08T21:50:45.755Z,17.73
2023-04-08T21:55:50.034Z,15.60
2023-04-08T21:58:22.518Z,14.73
2023-04-08T22:00:55.547Z,17.55
2023-04-08T22:03:27.995Z,14.63
2023-04-08T22:06:00.145Z,16.55
2023-04-08T22:08:32.754Z,16.73
2023-04-08T22:11:11.517Z,15.10
2023-04-08T22:13:43.693Z,15.88
2023-04-08T22:16:15.831Z,16.92
2023-04-08T22:18:48.383Z,15.07
2023-04-08T22:21:21.229Z,14.38
2023-04-08T22:23:53.592Z,15.13
2023-04-08T22:26:27.712Z,15.20
2023-04-08T22:31:31.868Z,14.77
2023-04-08T22:34:04.106Z,16.40
2023-04-08T22:36:36.251Z,15.18
2023-04-08T22:39:08.385Z,15.48
2023-04-08T22:41:40.575Z,16.38
2023-04-08T22:44:12.732Z,16.23
2023-04-08T22:46:44.836Z,16.30
2023-04-08T22:49:17.026Z,14.85
2023-04-08T22:51:49.638Z,14.73
2023-04-08T22:54:21.756Z,14.70
2023-04-08T22:56:54.773Z,14.30
2023-04-08T22:59:26.837Z,14.75
2023-04-08T23:01:59.044Z,14.57
2023-04-08T23:04:31.476Z,15.70
2023-04-08T23:07:03.613Z,18.40
2023-04-08T23:09:35.953Z,14.25
2023-04-08T23:12:08.028Z,14.77
2023-04-08T23:14:40.123Z,13.85
2023-04-08T23:17:12.442Z,14.45
2023-04-08T23:19:44.527Z,14.48
2023-04-08T23:22:17.191Z,14.35
2023-04-08T23:24:49.478Z,16.47
2023-04-08T23:27:21.576Z,15.90
2023-04-08T23:29:53.671Z,16.42
2023-04-08T23:32:26.830Z,16.95
2023-04-08T23:35:00.960Z,14.80
2023-04-08T23:40:05.646Z,13.45
2023-04-08T23:42:37.836Z,14.53
2023-04-08T23:45:10.567Z,15.43
2023-04-08T23:47:42.672Z,14.10
2023-04-08T23:50:14.930Z,13.55
2023-04-08T23:52:47.103Z,13.90
2023-04-08T23:55:20.193Z,14.25
2023-04-08T23:57:53.897Z,14.07
